Time;durP1;ratioP1;P1;durP2;ratioP2;P2;SDS_P1;SDS_P2;PMS_P1;PMS_P2;Temp;Humidity;BMP_temperature;BMP_pressure;BME280_temperature;BME280_humidity;BME280_pressure;Samples;Min_cycle;Max_cycle;Signal;HPM_P1;HPM_P2
2021/05/31 00:01:09;;;;;;;2.90;2.60;;;14.00;55.80;;;;;;10517972;28;20207;-77
2021/05/31 00:06:11;;;;;;;4.23;2.63;;;14.00;55.70;;;;;;10513652;28;20286;-77
2021/05/31 00:11:13;;;;;;;3.30;2.83;;;14.00;55.80;;;;;;10516887;28;20248;-77
2021/05/31 00:16:15;;;;;;;2.73;2.53;;;14.10;56.20;;;;;;10518884;28;20232;-76
2021/05/31 00:21:18;;;;;;;5.00;3.00;;;14.20;55.00;;;;;;10539637;28;20646;-77
2021/05/31 00:26:20;;;;;;;2.77;2.57;;;14.30;55.30;;;;;;10507717;28;20198;-77
2021/05/31 00:31:22;;;;;;;3.20;2.90;;;14.30;56.00;;;;;;10487534;28;20228;-77
2021/05/31 00:36:24;;;;;;;4.17;2.63;;;14.30;54.90;;;;;;10517909;28;20199;-77
2021/05/31 00:41:25;;;;;;;2.73;2.53;;;14.30;54.90;;;;;;10519917;28;20298;-77
2021/05/31 00:46:28;;;;;;;3.10;2.90;;;14.30;55.50;;;;;;10518411;28;20200;-79
2021/05/31 00:51:30;;;;;;;2.90;2.70;;;14.30;55.80;;;;;;10536809;28;20211;-77
2021/05/31 00:56:31;;;;;;;3.03;2.83;;;14.30;55.80;;;;;;10488749;28;20585;-79
2021/05/31 01:01:34;;;;;;;2.60;2.40;;;14.20;56.10;;;;;;10489871;28;20217;-77
2021/05/31 01:06:38;;;;;;;2.90;2.70;;;14.10;56.10;;;;;;10496259;28;20238;-78
2021/05/31 01:11:49;;;;;;;4.90;3.40;;;14.10;56.10;;;;;;10531430;28;20746;-77
2021/05/31 01:16:58;;;;;;;3.17;2.80;;;14.00;57.10;;;;;;10516590;28;20202;-78
2021/05/31 01:22:03;;;;;;;3.20;2.73;;;13.90;55.80;;;;;;10517202;28;20223;-76
2021/05/31 01:27:10;;;;;;;2.37;2.20;;;13.80;56.00;;;;;;10469530;28;20227;-77
2021/05/31 01:32:13;;;;;;;2.97;2.77;;;13.80;56.30;;;;;;10513859;28;20242;-76
2021/05/31 01:37:18;;;;;;;2.87;2.67;;;13.60;56.60;;;;;;10518390;28;20290;-77
2021/05/31 01:42:21;;;;;;;3.00;2.80;;;13.50;57.60;;;;;;10484639;28;20255;-77
2021/05/31 01:47:24;;;;;;;3.00;2.73;;;13.40;57.60;;;;;;10515763;28;20191;-77
2021/05/31 01:52:27;;;;;;;3.57;3.23;;;13.30;58.50;;;;;;10527554;28;20931;-79
2021/05/31 01:57:29;;;;;;;3.03;2.83;;;13.20;57.30;;;;;;10498743;28;20232;-78
2021/05/31 02:02:32;;;;;;;2.80;2.60;;;13.10;57.50;;;;;;10515104;28;20283;-79
2021/05/31 02:07:37;;;;;;;3.30;3.00;;;13.00;58.10;;;;;;10536992;28;20663;-79
2021/05/31 02:12:44;;;;;;;5.20;2.97;;;13.00;58.50;;;;;;10522048;28;20223;-78
2021/05/31 02:17:55;;;;;;;3.40;3.07;;;12.90;58.40;;;;;;10545768;28;20247;-79
2021/05/31 02:22:58;;;;;;;3.40;2.60;;;12.80;58.60;;;;;;10529151;28;20196;-80
2021/05/31 02:28:00;;;;;;;2.80;2.60;;;12.70;59.30;;;;;;10539364;28;20666;-79
2021/05/31 02:33:05;;;;;;;3.13;2.93;;;12.60;58.50;;;;;;10527239;28;20219;-79
2021/05/31 02:38:08;;;;;;;3.20;3.00;;;12.50;59.00;;;;;;10545467;28;20230;-80
2021/05/31 02:43:09;;;;;;;3.13;2.83;;;12.50;60.00;;;;;;10545109;28;20286;-79
2021/05/31 02:48:12;;;;;;;3.57;3.30;;;12.40;59.60;;;;;;10545452;28;20252;-79
2021/05/31 02:53:14;;;;;;;3.63;3.33;;;12.40;59.60;;;;;;10545130;28;20278;-78
2021/05/31 02:58:17;;;;;;;3.23;3.03;;;12.40;58.80;;;;;;10544988;28;20748;-79
2021/05/31 03:03:20;;;;;;;2.70;2.60;;;12.40;59.20;;;;;;10544564;28;20203;-79
2021/05/31 03:08:22;;;;;;;2.90;2.70;;;12.30;60.50;;;;;;10537723;28;20238;-79
2021/05/31 03:13:23;;;;;;;3.30;3.00;;;12.30;59.40;;;;;;10545685;28;20227;-79
2021/05/31 03:18:26;;;;;;;3.20;2.90;;;12.20;59.70;;;;;;10545284;28;20584;-78
2021/05/31 03:23:28;;;;;;;3.77;3.27;;;12.20;59.80;;;;;;10527586;28;20227;-79
2021/05/31 03:28:30;;;;;;;3.33;3.00;;;12.20;59.70;;;;;;10527090;28;20694;-79
2021/05/31 03:33:33;;;;;;;3.33;3.03;;;12.10;60.00;;;;;;10527233;28;20282;-79
2021/05/31 03:38:34;;;;;;;3.63;3.13;;;12.10;59.80;;;;;;10545036;28;20246;-79
2021/05/31 03:43:36;;;;;;;3.00;2.80;;;12.00;61.00;;;;;;10539193;28;20196;-79
2021/05/31 03:48:39;;;;;;;2.70;2.50;;;12.00;62.80;;;;;;10548531;28;20230;-78
2021/05/31 03:53:41;;;;;;;3.73;3.30;;;12.00;62.70;;;;;;10508079;28;20726;-79
2021/05/31 03:58:45;;;;;;;3.30;3.10;;;12.00;62.30;;;;;;10520159;28;20279;-78
2021/05/31 04:03:48;;;;;;;3.47;3.03;;;12.10;63.30;;;;;;10533902;28;20275;-79
2021/05/31 04:14:11;;;;;;;4.33;3.63;;;12.20;64.50;;;;;;10530302;28;20227;-81
2021/05/31 04:19:16;;;;;;;4.10;3.20;;;12.20;62.90;;;;;;10548659;28;20223;-81
2021/05/31 04:24:18;;;;;;;3.77;3.40;;;12.30;63.10;;;;;;10544319;28;20192;-79
2021/05/31 04:29:20;;;;;;;3.13;2.93;;;12.30;64.10;;;;;;10543200;28;20243;-81
2021/05/31 04:34:23;;;;;;;4.20;3.80;;;12.40;65.20;;;;;;10539169;28;20259;-80
2021/05/31 04:39:24;;;;;;;7.97;5.70;;;12.50;63.90;;;;;;10525950;28;20664;-81
2021/05/31 04:44:26;;;;;;;7.40;5.30;;;12.50;64.90;;;;;;10535015;28;20217;-78
2021/05/31 04:49:32;;;;;;;4.10;3.80;;;12.50;65.20;;;;;;10540231;28;20223;-79
2021/05/31 04:54:33;;;;;;;4.83;4.43;;;12.60;64.70;;;;;;10536513;28;20224;-80
2021/05/31 04:59:35;;;;;;;4.40;3.87;;;12.50;66.30;;;;;;10541078;28;20246;-79
2021/05/31 05:04:38;;;;;;;3.70;3.13;;;12.60;66.30;;;;;;10541928;28;20276;-80
2021/05/31 05:09:39;;;;;;;4.37;3.97;;;12.60;66.40;;;;;;10538924;28;20268;-79
2021/05/31 05:14:41;;;;;;;4.07;3.77;;;12.70;66.30;;;;;;10534315;28;20215;-80
2021/05/31 05:19:44;;;;;;;6.30;4.53;;;12.70;65.40;;;;;;10523933;28;20314;-80
2021/05/31 05:24:46;;;;;;;4.50;4.10;;;12.70;65.40;;;;;;10554162;28;20195;-80
2021/05/31 05:29:47;;;;;;;4.70;4.30;;;12.70;66.30;;;;;;10535377;28;20234;-81
2021/05/31 05:34:52;;;;;;;4.30;3.83;;;12.80;67.40;;;;;;10548747;28;20215;-80
2021/05/31 05:40:24;;;;;;;4.53;4.23;;;12.90;66.10;;;;;;10541582;28;20273;-78
2021/05/31 05:45:43;;;;;;;3.93;3.50;;;13.00;65.80;;;;;;10527843;28;20287;-80
2021/05/31 05:50:46;;;;;;;4.00;3.70;;;13.10;66.30;;;;;;10549166;28;20215;-80
2021/05/31 05:55:48;;;;;;;4.83;4.43;;;13.20;67.40;;;;;;10545962;28;20216;-80
2021/05/31 06:00:49;;;;;;;4.40;4.00;;;13.40;66.40;;;;;;10543025;28;20306;-80
2021/05/31 06:05:53;;;;;;;5.20;4.80;;;13.50;67.20;;;;;;10544737;28;20706;-80
2021/05/31 06:10:55;;;;;;;4.50;4.10;;;13.60;65.70;;;;;;10541427;28;20230;-80
2021/05/31 06:15:59;;;;;;;7.90;5.13;;;13.80;67.10;;;;;;10548636;28;20224;-78
2021/05/31 06:21:03;;;;;;;5.20;4.80;;;13.90;66.50;;;;;;10550134;28;20230;-79
2021/05/31 06:26:04;;;;;;;4.80;4.40;;;14.10;66.30;;;;;;10546755;28;20314;-79
2021/05/31 06:31:06;;;;;;;5.23;4.83;;;14.30;66.60;;;;;;10541615;28;20319;-79
2021/05/31 06:36:10;;;;;;;5.00;4.57;;;14.50;64.80;;;;;;10549246;28;20206;-81
2021/05/31 06:41:12;;;;;;;6.43;4.83;;;14.80;63.40;;;;;;10550887;28;20602;-81
2021/05/31 06:46:14;;;;;;;4.13;3.83;;;15.20;63.30;;;;;;10547178;28;20219;-80
2021/05/31 06:51:17;;;;;;;5.60;4.60;;;15.60;61.60;;;;;;10527895;28;20269;-80
2021/05/31 06:56:19;;;;;;;6.20;3.50;;;16.10;59.70;;;;;;10539978;28;20204;-81
2021/05/31 07:01:21;;;;;;;4.17;3.87;;;16.40;58.30;;;;;;10540854;28;20224;-80
2021/05/31 07:06:24;;;;;;;4.03;3.63;;;16.80;57.30;;;;;;10549435;28;20207;-80
2021/05/31 07:11:26;;;;;;;3.90;3.70;;;17.10;56.30;;;;;;10542522;28;20235;-80
2021/05/31 07:16:31;;;;;;;3.83;3.53;;;17.40;54.60;;;;;;10547872;28;20207;-80
2021/05/31 07:21:34;;;;;;;3.70;3.40;;;17.80;54.50;;;;;;10547284;28;20510;-80
2021/05/31 07:26:36;;;;;;;3.20;2.90;;;18.30;54.80;;;;;;10542936;28;20199;-81
2021/05/31 07:31:38;;;;;;;3.63;3.43;;;18.80;50.60;;;;;;10547848;28;20216;-80
2021/05/31 07:36:41;;;;;;;2.80;2.70;;;19.10;49.70;;;;;;10547634;28;20207;-82
2021/05/31 07:41:43;;;;;;;3.50;3.30;;;19.60;49.30;;;;;;10544828;28;20215;-80
2021/05/31 07:46:44;;;;;;;3.10;2.90;;;20.00;48.50;;;;;;10544853;28;20286;-81
2021/05/31 07:51:48;;;;;;;4.00;3.70;;;20.60;48.00;;;;;;10539236;28;20314;-82
2021/05/31 07:56:50;;;;;;;3.60;3.13;;;21.10;45.30;;;;;;10542562;28;20210;-81
2021/05/31 08:01:52;;;;;;;2.80;2.70;;;21.60;46.80;;;;;;10533963;28;20679;-83
2021/05/31 08:06:59;;;;;;;2.80;2.70;;;22.20;46.90;;;;;;10518674;28;20192;-81
2021/05/31 08:12:00;;;;;;;2.90;2.60;;;22.70;46.10;;;;;;10535277;28;20361;-82
2021/05/31 08:17:02;;;;;;;3.07;2.80;;;23.20;44.60;;;;;;10538432;28;20211;-82
2021/05/31 08:22:06;;;;;;;2.73;2.53;;;23.60;42.50;;;;;;10535941;28;20310;-81
2021/05/31 08:27:07;;;;;;;3.03;2.90;;;23.90;41.90;;;;;;10539723;28;20196;-81
2021/05/31 08:32:09;;;;;;;3.07;2.87;;;24.20;41.10;;;;;;10519180;28;20599;-82
2021/05/31 08:37:13;;;;;;;2.70;2.60;;;24.60;39.90;;;;;;10537434;28;20214;-83
2021/05/31 08:42:14;;;;;;;2.80;2.60;;;24.80;40.40;;;;;;10532172;28;20200;-82
2021/05/31 08:47:17;;;;;;;3.00;2.83;;;25.00;38.80;;;;;;10520167;28;20287;-81
2021/05/31 08:52:20;;;;;;;4.03;2.63;;;25.10;39.60;;;;;;10527825;28;20868;-80
2021/05/31 08:57:25;;;;;;;2.90;2.80;;;25.30;38.50;;;;;;10523311;28;20650;-83
2021/05/31 09:02:31;;;;;;;2.53;2.33;;;25.50;37.60;;;;;;10509551;28;20227;-82
2021/05/31 09:07:34;;;;;;;2.80;2.60;;;25.80;38.30;;;;;;10503177;28;20197;-80
2021/05/31 09:12:38;;;;;;;3.23;3.03;;;25.90;36.70;;;;;;10491176;28;20602;-83
2021/05/31 09:17:41;;;;;;;3.10;2.90;;;26.00;37.90;;;;;;10506850;28;20282;-81
2021/05/31 09:22:49;;;;;;;2.67;2.17;;;26.30;36.50;;;;;;10496635;28;20220;-81
2021/05/31 09:27:51;;;;;;;2.80;2.60;;;26.40;35.90;;;;;;10517538;28;20199;-82
2021/05/31 09:32:53;;;;;;;3.00;2.90;;;26.60;35.00;;;;;;10534410;28;20305;-83
2021/05/31 09:38:01;;;;;;;3.07;2.90;;;26.80;36.00;;;;;;10525354;28;20568;-80
2021/05/31 09:43:05;;;;;;;2.60;2.40;;;27.30;34.10;;;;;;10520748;28;20200;-82
2021/05/31 09:48:07;;;;;;;3.73;2.80;;;27.90;35.10;;;;;;10515507;28;20658;-83
2021/05/31 09:53:11;;;;;;;3.00;2.90;;;29.20;34.70;;;;;;10538517;28;20218;-83
2021/05/31 09:58:16;;;;;;;2.73;2.63;;;30.60;33.10;;;;;;10533853;28;20219;-81
2021/05/31 10:03:31;;;;;;;3.40;3.10;;;32.20;30.70;;;;;;10535387;28;20188;-84
2021/05/31 10:08:41;;;;;;;2.67;2.57;;;33.60;29.40;;;;;;10527060;22;21033;-77
2021/05/31 10:13:43;;;;;;;2.80;2.70;;;34.60;28.90;;;;;;10435236;28;20230;-79
2021/05/31 10:18:46;;;;;;;3.17;2.97;;;35.20;28.20;;;;;;10434084;28;20621;-78
2021/05/31 10:23:49;;;;;;;3.17;3.07;;;33.70;27.60;;;;;;10450869;28;20257;-78
2021/05/31 10:28:52;;;;;;;3.13;2.90;;;30.90;28.70;;;;;;10433871;28;20253;-78
2021/05/31 10:33:58;;;;;;;3.03;2.83;;;28.50;30.70;;;;;;10447155;28;20816;-78
2021/05/31 10:39:04;;;;;;;2.90;2.80;;;26.60;31.70;;;;;;10458506;28;20221;-78
2021/05/31 10:44:16;;;;;;;3.13;2.93;;;25.10;34.20;;;;;;10457433;28;20197;-78
2021/05/31 10:49:22;;;;;;;3.00;2.83;;;23.90;35.30;;;;;;10435927;28;20243;-78
2021/05/31 10:54:26;;;;;;;8.10;3.80;;;23.10;37.40;;;;;;10453589;28;20213;-78
2021/05/31 10:59:27;;;;;;;2.87;2.67;;;22.60;37.80;;;;;;10440699;28;20259;-78
2021/05/31 11:04:29;;;;;;;2.97;2.87;;;22.10;39.70;;;;;;10458753;28;20248;-78
2021/05/31 11:09:34;;;;;;;3.30;3.10;;;21.80;40.00;;;;;;10451038;28;20308;-78
2021/05/31 11:14:38;;;;;;;3.40;3.20;;;21.60;40.40;;;;;;10457977;28;20243;-78
2021/05/31 11:19:44;;;;;;;3.50;3.30;;;21.50;40.40;;;;;;10451294;28;20271;-78
2021/05/31 11:24:55;;;;;;;3.33;3.03;;;21.30;39.30;;;;;;10456722;28;20238;-78
2021/05/31 11:29:57;;;;;;;4.57;3.00;;;21.00;41.80;;;;;;10432554;28;20283;-78
2021/05/31 11:35:00;;;;;;;3.60;3.40;;;20.80;40.80;;;;;;10436127;28;20267;-78
2021/05/31 11:40:14;;;;;;;3.20;3.00;;;20.70;40.00;;;;;;10422585;28;20252;-79
2021/05/31 11:45:18;;;;;;;3.60;3.03;;;20.60;41.00;;;;;;10456288;28;20229;-78
2021/05/31 11:50:21;;;;;;;3.03;2.83;;;20.60;40.90;;;;;;10457871;28;20221;-78
2021/05/31 11:55:25;;;;;;;4.00;3.67;;;20.40;41.70;;;;;;10432878;28;20221;-78
2021/05/31 12:00:29;;;;;;;2.93;2.73;;;20.50;40.40;;;;;;10458224;28;20217;-77
2021/05/31 12:05:37;;;;;;;3.60;3.40;;;20.40;40.10;;;;;;10478755;28;20205;-77
2021/05/31 12:10:41;;;;;;;3.03;2.83;;;20.40;39.60;;;;;;10442050;28;20700;-78
2021/05/31 12:15:44;;;;;;;3.13;2.90;;;20.30;41.20;;;;;;10437129;28;20225;-78
2021/05/31 12:20:45;;;;;;;3.00;2.83;;;20.30;42.40;;;;;;10456341;28;20229;-78
2021/05/31 12:25:49;;;;;;;3.30;3.10;;;20.30;42.00;;;;;;10449995;28;20273;-78
2021/05/31 12:30:54;;;;;;;2.83;2.70;;;20.40;40.80;;;;;;10441201;28;20763;-78
2021/05/31 12:36:04;;;;;;;3.17;3.00;;;20.50;40.40;;;;;;10453981;28;20221;-78
2021/05/31 12:41:08;;;;;;;2.70;2.60;;;20.60;39.50;;;;;;10436424;28;20701;-78
2021/05/31 12:46:16;;;;;;;2.87;2.67;;;20.60;38.60;;;;;;10429474;28;20661;-78
2021/05/31 12:51:18;;;;;;;3.83;3.00;;;20.60;38.10;;;;;;10453865;28;20217;-77
2021/05/31 12:56:21;;;;;;;3.30;3.10;;;20.50;39.40;;;;;;10450684;28;20217;-78
2021/05/31 13:01:27;;;;;;;3.53;3.33;;;20.50;40.60;;;;;;10433524;28;20222;-78
2021/05/31 13:06:33;;;;;;;2.57;2.47;;;20.50;38.20;;;;;;10421561;28;20206;-78
2021/05/31 13:11:47;;;;;;;2.60;2.50;;;20.50;38.70;;;;;;10417032;28;20753;-78
2021/05/31 13:16:55;;;;;;;2.83;2.73;;;20.50;37.00;;;;;;10427927;28;20193;-78
2021/05/31 13:21:59;;;;;;;2.70;2.53;;;20.60;39.30;;;;;;10416477;28;20225;-77
2021/05/31 13:27:15;;;;;;;2.70;2.60;;;20.60;39.20;;;;;;10418365;28;20226;-78
2021/05/31 13:32:16;;;;;;;3.10;2.90;;;20.50;39.40;;;;;;10452997;28;20708;-78
2021/05/31 13:37:18;;;;;;;3.60;3.40;;;20.60;38.90;;;;;;10408445;28;20226;-78
2021/05/31 13:42:21;;;;;;;2.83;2.67;;;20.70;39.50;;;;;;10420188;28;20251;-78
2021/05/31 13:47:23;;;;;;;2.80;2.70;;;20.70;39.50;;;;;;10447663;28;20228;-79
2021/05/31 13:52:24;;;;;;;2.87;2.67;;;20.80;40.00;;;;;;10453850;28;20213;-78
2021/05/31 13:57:27;;;;;;;4.80;2.73;;;20.80;40.30;;;;;;10453542;28;20259;-78
2021/05/31 14:02:29;;;;;;;2.80;2.60;;;20.80;41.20;;;;;;10420628;28;20917;-78
2021/05/31 14:07:31;;;;;;;3.33;3.13;;;20.90;40.20;;;;;;10460785;28;20201;-78
2021/05/31 14:12:34;;;;;;;3.10;2.90;;;20.80;40.50;;;;;;10444293;28;20606;-79
2021/05/31 14:17:36;;;;;;;3.20;3.00;;;20.80;41.70;;;;;;10444866;28;20618;-78
2021/05/31 14:22:38;;;;;;;2.90;2.80;;;20.90;40.10;;;;;;10454771;28;20213;-78
2021/05/31 14:27:42;;;;;;;3.70;3.30;;;20.90;40.80;;;;;;10419353;28;20211;-78
2021/05/31 14:32:43;;;;;;;2.90;2.80;;;21.00;40.50;;;;;;10454741;28;20731;-79
2021/05/31 14:37:45;;;;;;;2.70;2.60;;;21.00;41.00;;;;;;10455811;28;20623;-79
2021/05/31 14:42:48;;;;;;;3.40;3.10;;;20.90;41.50;;;;;;10426483;28;20311;-79
2021/05/31 14:47:51;;;;;;;3.20;3.00;;;20.90;42.30;;;;;;10435949;28;20233;-79
2021/05/31 14:52:53;;;;;;;2.60;2.50;;;20.90;41.90;;;;;;10426328;28;20210;-79
2021/05/31 14:57:56;;;;;;;3.33;3.13;;;20.90;42.20;;;;;;10429541;28;20210;-78
2021/05/31 15:02:58;;;;;;;3.60;3.40;;;20.70;43.50;;;;;;10427704;28;20299;-79
2021/05/31 15:07:59;;;;;;;4.20;3.80;;;20.70;42.80;;;;;;10440216;28;20599;-79
2021/05/31 15:13:02;;;;;;;3.40;3.20;;;20.80;42.50;;;;;;10428768;28;20228;-79
2021/05/31 15:18:04;;;;;;;3.30;3.10;;;20.80;43.10;;;;;;10428124;28;20205;-78
2021/05/31 15:23:06;;;;;;;3.57;3.30;;;20.80;43.40;;;;;;10459206;28;20217;-79
2021/05/31 15:28:09;;;;;;;3.87;3.67;;;20.80;42.20;;;;;;10435294;28;20198;-79
2021/05/31 15:33:10;;;;;;;3.43;3.23;;;20.90;41.50;;;;;;10429263;28;20222;-79
2021/05/31 15:38:12;;;;;;;2.60;2.37;;;20.90;41.90;;;;;;10451204;28;20287;-79
2021/05/31 15:43:15;;;;;;;2.87;2.70;;;20.90;42.60;;;;;;10459197;28;20204;-79
2021/05/31 15:48:17;;;;;;;2.93;2.73;;;20.90;42.70;;;;;;10457874;28;20219;-79
2021/05/31 15:53:19;;;;;;;3.40;2.73;;;20.90;43.50;;;;;;10459644;28;20255;-79
2021/05/31 15:58:21;;;;;;;3.03;2.83;;;20.90;43.70;;;;;;10440731;28;20205;-79
2021/05/31 16:03:23;;;;;;;3.30;3.10;;;21.00;41.80;;;;;;10463343;28;20680;-79
2021/05/31 16:08:31;;;;;;;3.03;2.90;;;20.90;41.80;;;;;;10456721;28;20205;-79
2021/05/31 16:13:34;;;;;;;3.50;3.30;;;20.90;42.90;;;;;;10457202;28;20253;-78
2021/05/31 16:18:35;;;;;;;3.40;3.10;;;21.00;42.10;;;;;;10438435;28;20253;-78
2021/05/31 16:23:42;;;;;;;3.10;2.93;;;20.90;43.00;;;;;;10456095;28;20197;-78
2021/05/31 16:28:45;;;;;;;3.17;2.87;;;20.90;43.80;;;;;;10421000;28;20232;-79
2021/05/31 16:33:47;;;;;;;3.40;3.10;;;20.90;43.10;;;;;;10449922;28;20297;-79
2021/05/31 16:38:49;;;;;;;3.20;3.00;;;20.90;43.00;;;;;;10455830;28;20295;-79
2021/05/31 16:43:52;;;;;;;2.77;2.60;;;20.90;42.90;;;;;;10456384;28;20691;-79
2021/05/31 16:48:53;;;;;;;3.73;3.00;;;20.80;42.30;;;;;;10454788;28;20293;-78
2021/05/31 16:53:55;;;;;;;3.20;2.90;;;20.80;42.20;;;;;;10453830;28;20732;-78
2021/05/31 16:58:58;;;;;;;2.67;2.57;;;20.70;44.20;;;;;;10436121;28;20255;-78
2021/05/31 17:04:02;;;;;;;4.50;2.77;;;20.70;43.30;;;;;;10450024;28;20194;-78
2021/05/31 17:09:05;;;;;;;4.87;3.10;;;20.70;43.00;;;;;;10444991;28;20229;-78
2021/05/31 17:19:33;;;;;;;2.70;2.60;;;20.70;45.70;;;;;;10452539;28;20267;-78
2021/05/31 17:24:34;;;;;;;3.83;3.53;;;20.70;42.70;;;;;;10429154;28;20196;-78
2021/05/31 17:29:40;;;;;;;3.30;3.00;;;20.60;44.20;;;;;;10452609;28;20300;-78
2021/05/31 17:34:42;;;;;;;2.57;2.47;;;20.60;44.30;;;;;;10442229;28;20300;-78
2021/05/31 17:39:44;;;;;;;3.03;2.83;;;20.60;44.60;;;;;;10437381;28;20253;-78
2021/05/31 17:44:47;;;;;;;3.00;2.80;;;20.50;45.00;;;;;;10445934;28;20338;-78
2021/05/31 17:49:48;;;;;;;2.63;2.43;;;20.50;45.70;;;;;;10454863;28;20236;-79
2021/05/31 17:54:50;;;;;;;2.50;2.40;;;20.40;45.60;;;;;;10431245;28;20657;-78
2021/05/31 17:59:56;;;;;;;2.80;2.70;;;20.40;45.60;;;;;;10462402;28;20213;-78
2021/05/31 18:04:58;;;;;;;2.80;2.60;;;20.30;45.80;;;;;;10447505;28;20189;-78
2021/05/31 18:09:59;;;;;;;3.30;3.00;;;20.20;46.40;;;;;;10427287;28;20233;-78
2021/05/31 18:15:03;;;;;;;2.57;2.47;;;20.20;45.00;;;;;;10433698;28;20275;-78
2021/05/31 18:20:08;;;;;;;3.10;2.90;;;20.10;46.40;;;;;;10426666;28;20220;-78
2021/05/31 18:25:12;;;;;;;2.33;2.23;;;20.10;47.50;;;;;;10420641;28;20205;-78
2021/05/31 18:30:18;;;;;;;2.97;2.77;;;20.00;46.70;;;;;;10433310;28;20221;-79
2021/05/31 18:35:22;;;;;;;3.03;2.83;;;20.00;47.10;;;;;;10411484;28;20229;-78
2021/05/31 18:40:24;;;;;;;2.77;2.30;;;19.90;47.20;;;;;;10419601;28;20224;-78
2021/05/31 18:45:27;;;;;;;3.00;2.80;;;19.80;46.70;;;;;;10427997;28;20201;-79
2021/05/31 18:50:29;;;;;;;2.90;2.70;;;19.70;49.70;;;;;;10442196;28;20657;-79
2021/05/31 18:55:30;;;;;;;2.83;2.73;;;19.70;48.30;;;;;;10427714;28;20247;-78
2021/05/31 19:00:34;;;;;;;3.37;3.17;;;19.60;49.10;;;;;;10432453;28;20296;-79
2021/05/31 19:05:35;;;;;;;3.17;2.97;;;19.50;49.30;;;;;;10422223;28;20292;-78
2021/05/31 19:10:37;;;;;;;3.47;2.97;;;19.50;49.80;;;;;;10430454;28;20603;-78
2021/05/31 19:15:40;;;;;;;3.20;3.00;;;19.40;49.30;;;;;;10408548;28;20749;-79
2021/05/31 19:20:42;;;;;;;3.50;3.20;;;19.30;50.90;;;;;;10435463;28;20225;-78
2021/05/31 19:25:44;;;;;;;3.57;3.27;;;19.20;51.40;;;;;;10451452;28;20683;-78
2021/05/31 19:30:47;;;;;;;2.90;2.70;;;19.10;50.90;;;;;;10451896;28;20309;-78
2021/05/31 19:35:49;;;;;;;4.43;3.60;;;19.10;51.50;;;;;;10449538;28;20221;-78
2021/05/31 19:40:51;;;;;;;3.40;3.10;;;19.00;51.30;;;;;;10414690;28;20763;-78
2021/05/31 19:45:54;;;;;;;2.90;2.70;;;18.90;50.60;;;;;;10433299;28;20280;-78
2021/05/31 19:51:27;;;;;;;3.90;3.67;;;18.80;50.70;;;;;;10421132;28;20251;-78
2021/05/31 19:56:24;;;;;;;4.40;3.87;;;18.70;50.80;;;;;;10439949;28;20275;-78
2021/05/31 20:01:28;;;;;;;4.77;4.37;;;18.50;51.00;;;;;;10450164;28;20233;-78
2021/05/31 20:06:30;;;;;;;3.90;3.53;;;18.40;51.30;;;;;;10446364;28;20197;-78
2021/05/31 20:11:32;;;;;;;3.93;3.63;;;18.30;51.90;;;;;;10451175;28;20313;-78
2021/05/31 20:16:35;;;;;;;3.50;3.30;;;18.20;51.80;;;;;;10415631;28;20217;-78
2021/05/31 20:21:36;;;;;;;3.93;3.63;;;18.00;52.40;;;;;;10446803;28;20225;-78
2021/05/31 20:26:38;;;;;;;4.50;4.10;;;17.90;53.20;;;;;;10424674;28;20189;-77
2021/05/31 20:31:41;;;;;;;4.43;4.13;;;17.80;53.10;;;;;;10441966;28;20251;-78
2021/05/31 20:36:42;;;;;;;3.80;3.60;;;17.70;53.10;;;;;;10441890;28;20231;-77
2021/05/31 20:41:44;;;;;;;3.67;3.37;;;17.70;53.20;;;;;;10439902;28;20217;-77
2021/05/31 20:46:50;;;;;;;3.20;3.00;;;17.60;53.80;;;;;;10450583;28;20595;-77
2021/05/31 20:51:52;;;;;;;3.93;3.73;;;17.40;53.90;;;;;;10424901;28;20279;-77
2021/05/31 20:56:54;;;;;;;3.90;3.60;;;17.30;54.30;;;;;;10424089;28;20303;-78
2021/05/31 21:01:57;;;;;;;3.70;3.50;;;17.20;54.50;;;;;;10430770;28;20229;-78
2021/05/31 21:06:58;;;;;;;3.87;3.57;;;17.10;54.40;;;;;;10428528;28;20197;-78
2021/05/31 21:12:03;;;;;;;3.97;3.77;;;17.00;54.90;;;;;;10416732;28;20320;-78
2021/05/31 21:17:11;;;;;;;4.27;3.97;;;16.90;55.10;;;;;;10435482;28;20225;-78
2021/05/31 21:22:20;;;;;;;3.90;3.60;;;16.90;55.00;;;;;;10447597;28;20224;-77
2021/05/31 21:27:21;;;;;;;3.50;3.30;;;16.80;55.90;;;;;;10440526;28;20616;-78
2021/05/31 21:32:24;;;;;;;3.30;3.10;;;16.70;55.10;;;;;;10455065;28;20248;-77
2021/05/31 21:37:26;;;;;;;4.73;4.30;;;16.60;55.20;;;;;;10442328;28;20212;-78
2021/05/31 21:42:28;;;;;;;3.70;3.50;;;16.50;55.40;;;;;;10420745;28;20232;-77
2021/05/31 21:47:31;;;;;;;4.40;4.10;;;16.40;55.40;;;;;;10407615;28;20203;-78
2021/05/31 21:52:34;;;;;;;3.93;3.67;;;16.40;55.50;;;;;;10450783;28;20290;-78
2021/05/31 21:57:37;;;;;;;4.13;3.87;;;16.30;55.70;;;;;;10421863;28;20248;-78
2021/05/31 22:02:40;;;;;;;4.10;3.87;;;16.20;55.80;;;;;;10434704;28;20221;-78
2021/05/31 22:07:44;;;;;;;4.13;3.83;;;16.20;55.60;;;;;;10415042;28;20201;-78
2021/05/31 22:12:46;;;;;;;4.07;3.77;;;16.20;55.70;;;;;;10434704;28;20233;-77
2021/05/31 22:17:50;;;;;;;3.70;3.37;;;16.20;55.30;;;;;;10444870;28;20203;-77
2021/05/31 22:33:35;;;;;;;3.93;3.73;;;16.10;55.20;;;;;;10428309;28;20225;-77
2021/05/31 22:38:41;;;;;;;4.00;3.80;;;16.10;55.30;;;;;;10431414;28;20320;-77
2021/05/31 22:44:06;;;;;;;3.87;3.50;;;16.00;55.60;;;;;;10432903;28;20285;-77
2021/05/31 23:15:48;;;;;;;4.17;3.87;;;15.70;55.90;;;;;;10456837;28;20228;-77
2021/05/31 23:20:51;;;;;;;3.60;3.30;;;15.60;55.70;;;;;;10444093;28;20224;-77
2021/05/31 23:25:53;;;;;;;3.80;3.60;;;15.60;56.40;;;;;;10439034;28;20283;-76
2021/05/31 23:30:55;;;;;;;4.70;3.30;;;15.50;56.90;;;;;;10443058;28;20240;-77
2021/05/31 23:42:35;;;;;;;3.30;3.10;;;15.50;57.60;;;;;;10346709;28;20221;-78
2021/05/31 23:47:37;;;;;;;3.00;2.90;;;15.40;56.40;;;;;;10463792;28;20197;-76
2021/05/31 23:52:39;;;;;;;3.53;3.20;;;15.40;56.80;;;;;;10449549;28;20308;-76
2021/05/31 23:57:42;;;;;;;3.37;3.17;;;15.30;57.30;;;;;;10454971;28;20781;-76
